Lady Debora — V2QG7 — position and weather

sailwx.info

Track history (hours):
 
Tides and Currents Weather Stations Pressure Air Temp Water Temp Dewpoint Dewpoint Depression Visibility Wind Speed Wind Dir Waves Ship Positions

Lady Debora

Last reported at 2017-May-27 20:48 UTC. Time now 2017-May-27 21:24 UTC.
Position N 47°24' W 006°40'.

Length 107 m; draft 7.2 m.

Type: Cargo ship. MMSI: 304010760.

Date/timePositionNaut miles runAvg speedWind from/ knotsBaromVisibWave heightAir tempDewpointWater temp
2017-May-27 20:48N 47°24' W 006°40'479 9.5
2017-May-25 18:20N 39°45' W 009°50'4 9.5
2017-May-25 17:58N 39°41' W 009°50'7 9.3
2017-May-25 17:15N 39°35' W 009°50'2 9.5
2017-May-25 17:00N 39°32' W 009°50'5 9.9
2017-May-25 16:30N 39°27' W 009°50'5 9.5
2017-May-25 16:01N 39°23' W 009°50'5 9.2
2017-May-25 15:31N 39°18' W 009°50'5 9.6
2017-May-25 15:00N 39°13' W 009°51'9 9.5
2017-May-25 14:01N 39°04' W 009°51'5 9.7
2017-May-25 13:30N 38°59' W 009°51'5 9.8
2017-May-25 13:01N 38°54' W 009°51'510.1
2017-May-25 12:31N 38°49' W 009°51'510.1
2017-May-25 12:00N 38°44' W 009°51'5 9.5
2017-May-25 11:31N 38°39' W 009°50'5 9.4
2017-May-25 11:01N 38°35' W 009°48'5 9.4
2017-May-25 10:31N 38°30' W 009°47'5 9.6
2017-May-25 10:01N 38°25' W 009°46'5 9.6
2017-May-25 09:30N 38°21' W 009°44'5 9.4
2017-May-25 09:00N 38°16' W 009°43'5 9.5
2017-May-25 08:31N 38°11' W 009°42'5 9.9
2017-May-25 08:00N 38°07' W 009°40'5 9.9
2017-May-25 07:31N 38°02' W 009°39'5 9.8
2017-May-25 07:00N 37°57' W 009°38'510.0
2017-May-25 06:30N 37°52' W 009°36'5 9.9
2017-May-25 06:01N 37°47' W 009°35'5 9.8
2017-May-25 05:29N 37°42' W 009°33'4 9.6
2017-May-25 05:01N 37°38' W 009°32'5 9.6
2017-May-25 04:30N 37°33' W 009°30'5 9.6
2017-May-25 04:01N 37°29' W 009°29'5 9.8
2017-May-25 03:29N 37°24' W 009°27'14 9.8
2017-May-25 02:03N 37°10' W 009°24'3 9.7
2017-May-25 01:44N 37°07' W 009°23'13 9.0
2017-May-25 00:15N 36°54' W 009°19'2 8.5
2017-May-25 00:01N 36°52' W 009°18'9 9.1
2017-May-24 23:04N 36°46' W 009°10'1 9.3
2017-May-24 23:01N 36°46' W 009°10'5 9.4
2017-May-24 22:30N 36°44' W 009°04'5 9.2
2017-May-24 22:00N 36°42' W 008°59'5 9.3
2017-May-24 21:30N 36°41' W 008°53'5 9.5
2017-May-24 21:01N 36°39' W 008°48'20 9.3
2017-May-24 18:49N 36°33' W 008°24'3 9.6
2017-May-24 18:31N 36°32' W 008°20'9 9.6
2017-May-24 17:37N 36°29' W 008°10'1 9.7
2017-May-24 17:30N 36°29' W 008°09'5 9.6
2017-May-24 17:01N 36°27' W 008°03'7 9.8
2017-May-24 16:18N 36°25' W 007°55'3 9.9
2017-May-24 16:00N 36°24' W 007°52'5 9.9
2017-May-24 15:30N 36°22' W 007°46'10410.6
2017-May-24 05:38N 35°57' W 005°40'1 8.1
2017-May-24 05:27N 35°57' W 005°38'3 7.9
2017-May-24 05:01N 35°58' W 005°34'4 8.3
2017-May-24 04:28N 35°59' W 005°29'4 9.3
2017-May-24 04:00N 36°00' W 005°24'4 8.8
2017-May-24 03:31N 36°01' W 005°18'4 8.9
2017-May-24 03:00N 36°02' W 005°13'239 9.5
2017-May-23 01:55N 36°38' W 000°19'40 9.6
2017-May-22 21:46N 36°44' E 000°30'4610.4
2017-May-22 17:19N 36°49' E 001°27'310.8
2017-May-22 17:00N 36°50' E 001°32'610.8
2017-May-22 16:29N 36°50' E 001°38'510.7
2017-May-22 16:00N 36°51' E 001°45'710.6
2017-May-22 15:22N 36°52' E 001°53'610.6
2017-May-22 14:48N 36°53' E 002°01'810.5
2017-May-22 14:00N 36°54' E 002°11'1610.4
2017-May-22 12:25N 36°56' E 002°31'410.4
2017-May-22 12:00N 36°56' E 002°37'510.5
2017-May-22 11:30N 36°57' E 002°43'510.5
2017-May-22 11:00N 36°58' E 002°50'910.3
2017-May-22 10:10N 36°59' E 003°01'310.3
2017-May-22 09:54N 36°59' E 003°04'410.4
2017-May-22 09:30N 37°00' E 003°09'510.4
2017-May-22 08:59N 37°01' E 003°16'510.3
2017-May-22 08:30N 37°01' E 003°22'510.2
2017-May-22 08:00N 37°02' E 003°28'510.2
2017-May-22 07:30N 37°03' E 003°35'510.4
2017-May-22 07:00N 37°04' E 003°41'510.5
2017-May-22 06:29N 37°05' E 003°48'510.2
2017-May-22 05:59N 37°05' E 003°54'1610.1
2017-May-22 04:21N 37°07' E 004°15'7 9.9
2017-May-22 03:36N 37°08' E 004°24'110.1
2017-May-22 03:29N 37°08' E 004°26'510.0
2017-May-22 03:01N 37°09' E 004°31'8010.0
2017-May-21 19:02N 37°20' E 006°10'810.4
2017-May-21 18:18N 37°20' E 006°20'610.2
2017-May-21 17:42N 37°21' E 006°28'302 8.2
2017-May-20 04:40N 37°04' E 012°46'43 9.3
2017-May-20 00:06N 36°52' E 013°38'1 9.5
2017-May-20 00:00N 36°52' E 013°39'5 9.6
2017-May-19 23:30N 36°50' E 013°44'5 9.8
2017-May-19 23:00N 36°49' E 013°50'5 9.9
2017-May-19 22:30N 36°48' E 013°56'5 9.9
2017-May-19 22:00N 36°46' E 014°02'5 9.9
2017-May-19 21:31N 36°45' E 014°08'5 9.9
2017-May-19 21:00N 36°44' E 014°14'510.0
2017-May-19 20:30N 36°42' E 014°20'510.2
2017-May-19 20:00N 36°41' E 014°26'510.3
2017-May-19 19:30N 36°39' E 014°32'510.3
2017-May-19 19:00N 36°38' E 014°38'510.1
2017-May-19 18:29N 36°37' E 014°45'5 9.8
2017-May-19 18:00N 36°35' E 014°51'5 9.6
2017-May-19 17:27N 36°34' E 014°57'5110.0
2017-May-19 12:20N 36°30' E 016°01'610.3
2017-May-19 11:46N 36°30' E 016°08'310.2
2017-May-19 11:29N 36°30' E 016°11'510.2
2017-May-19 10:59N 36°30' E 016°18'  
Track history (hours):
 
Tides and Currents Weather Stations Pressure Air Temp Water Temp Dewpoint Dewpoint Depression Visibility Wind Speed Wind Dir Waves Ship Positions

Lady Debora

Last reported at 2017-May-27 20:48 UTC. Time now 2017-May-27 21:24 UTC.
Position N 47°24' W 006°40'.

Length 107 m; draft 7.2 m.

Type: Cargo ship. MMSI: 304010760.

Date/timePositionNaut miles runAvg speedWind from/ knotsBaromVisibWave heightAir tempDewpointWater temp
2017-May-27 20:48N 47°24' W 006°40'479 9.5
2017-May-25 18:20N 39°45' W 009°50'4 9.5
2017-May-25 17:58N 39°41' W 009°50'7 9.3
2017-May-25 17:15N 39°35' W 009°50'2 9.5
2017-May-25 17:00N 39°32' W 009°50'5 9.9
2017-May-25 16:30N 39°27' W 009°50'5 9.5
2017-May-25 16:01N 39°23' W 009°50'5 9.2
2017-May-25 15:31N 39°18' W 009°50'5 9.6
2017-May-25 15:00N 39°13' W 009°51'9 9.5
2017-May-25 14:01N 39°04' W 009°51'5 9.7
2017-May-25 13:30N 38°59' W 009°51'5 9.8
2017-May-25 13:01N 38°54' W 009°51'510.1
2017-May-25 12:31N 38°49' W 009°51'510.1
2017-May-25 12:00N 38°44' W 009°51'5 9.5
2017-May-25 11:31N 38°39' W 009°50'5 9.4
2017-May-25 11:01N 38°35' W 009°48'5 9.4
2017-May-25 10:31N 38°30' W 009°47'5 9.6
2017-May-25 10:01N 38°25' W 009°46'5 9.6
2017-May-25 09:30N 38°21' W 009°44'5 9.4
2017-May-25 09:00N 38°16' W 009°43'5 9.5
2017-May-25 08:31N 38°11' W 009°42'5 9.9
2017-May-25 08:00N 38°07' W 009°40'5 9.9
2017-May-25 07:31N 38°02' W 009°39'5 9.8
2017-May-25 07:00N 37°57' W 009°38'510.0
2017-May-25 06:30N 37°52' W 009°36'5 9.9
2017-May-25 06:01N 37°47' W 009°35'5 9.8
2017-May-25 05:29N 37°42' W 009°33'4 9.6
2017-May-25 05:01N 37°38' W 009°32'5 9.6
2017-May-25 04:30N 37°33' W 009°30'5 9.6
2017-May-25 04:01N 37°29' W 009°29'5 9.8
2017-May-25 03:29N 37°24' W 009°27'14 9.8
2017-May-25 02:03N 37°10' W 009°24'3 9.7
2017-May-25 01:44N 37°07' W 009°23'13 9.0
2017-May-25 00:15N 36°54' W 009°19'2 8.5
2017-May-25 00:01N 36°52' W 009°18'9 9.1
2017-May-24 23:04N 36°46' W 009°10'1 9.3
2017-May-24 23:01N 36°46' W 009°10'5 9.4
2017-May-24 22:30N 36°44' W 009°04'5 9.2
2017-May-24 22:00N 36°42' W 008°59'5 9.3
2017-May-24 21:30N 36°41' W 008°53'5 9.5
2017-May-24 21:01N 36°39' W 008°48'20 9.3
2017-May-24 18:49N 36°33' W 008°24'3 9.6
2017-May-24 18:31N 36°32' W 008°20'9 9.6
2017-May-24 17:37N 36°29' W 008°10'1 9.7
2017-May-24 17:30N 36°29' W 008°09'5 9.6
2017-May-24 17:01N 36°27' W 008°03'7 9.8
2017-May-24 16:18N 36°25' W 007°55'3 9.9
2017-May-24 16:00N 36°24' W 007°52'5 9.9
2017-May-24 15:30N 36°22' W 007°46'10410.6
2017-May-24 05:38N 35°57' W 005°40'1 8.1
2017-May-24 05:27N 35°57' W 005°38'3 7.9
2017-May-24 05:01N 35°58' W 005°34'4 8.3
2017-May-24 04:28N 35°59' W 005°29'4 9.3
2017-May-24 04:00N 36°00' W 005°24'4 8.8
2017-May-24 03:31N 36°01' W 005°18'4 8.9
2017-May-24 03:00N 36°02' W 005°13'239 9.5
2017-May-23 01:55N 36°38' W 000°19'40 9.6
2017-May-22 21:46N 36°44' E 000°30'4610.4
2017-May-22 17:19N 36°49' E 001°27'310.8
2017-May-22 17:00N 36°50' E 001°32'610.8
2017-May-22 16:29N 36°50' E 001°38'510.7
2017-May-22 16:00N 36°51' E 001°45'710.6
2017-May-22 15:22N 36°52' E 001°53'610.6
2017-May-22 14:48N 36°53' E 002°01'810.5
2017-May-22 14:00N 36°54' E 002°11'1610.4
2017-May-22 12:25N 36°56' E 002°31'410.4
2017-May-22 12:00N 36°56' E 002°37'510.5
2017-May-22 11:30N 36°57' E 002°43'510.5
2017-May-22 11:00N 36°58' E 002°50'910.3
2017-May-22 10:10N 36°59' E 003°01'310.3
2017-May-22 09:54N 36°59' E 003°04'410.4
2017-May-22 09:30N 37°00' E 003°09'510.4
2017-May-22 08:59N 37°01' E 003°16'510.3
2017-May-22 08:30N 37°01' E 003°22'510.2
2017-May-22 08:00N 37°02' E 003°28'510.2
2017-May-22 07:30N 37°03' E 003°35'510.4
2017-May-22 07:00N 37°04' E 003°41'510.5
2017-May-22 06:29N 37°05' E 003°48'510.2
2017-May-22 05:59N 37°05' E 003°54'1610.1
2017-May-22 04:21N 37°07' E 004°15'7 9.9
2017-May-22 03:36N 37°08' E 004°24'110.1
2017-May-22 03:29N 37°08' E 004°26'510.0
2017-May-22 03:01N 37°09' E 004°31'8010.0
2017-May-21 19:02N 37°20' E 006°10'810.4
2017-May-21 18:18N 37°20' E 006°20'610.2
2017-May-21 17:42N 37°21' E 006°28'302 8.2
2017-May-20 04:40N 37°04' E 012°46'43 9.3
2017-May-20 00:06N 36°52' E 013°38'1 9.5
2017-May-20 00:00N 36°52' E 013°39'5 9.6
2017-May-19 23:30N 36°50' E 013°44'5 9.8
2017-May-19 23:00N 36°49' E 013°50'5 9.9
2017-May-19 22:30N 36°48' E 013°56'5 9.9
2017-May-19 22:00N 36°46' E 014°02'5 9.9
2017-May-19 21:31N 36°45' E 014°08'5 9.9
2017-May-19 21:00N 36°44' E 014°14'510.0
2017-May-19 20:30N 36°42' E 014°20'510.2
2017-May-19 20:00N 36°41' E 014°26'510.3
2017-May-19 19:30N 36°39' E 014°32'510.3
2017-May-19 19:00N 36°38' E 014°38'510.1
2017-May-19 18:29N 36°37' E 014°45'5 9.8
2017-May-19 18:00N 36°35' E 014°51'5 9.6
2017-May-19 17:27N 36°34' E 014°57'5110.0
2017-May-19 12:20N 36°30' E 016°01'610.3
2017-May-19 11:46N 36°30' E 016°08'310.2
2017-May-19 11:29N 36°30' E 016°11'510.2
2017-May-19 10:59N 36°30' E 016°18'  

Dump ship's entire track history